Marlin, Washington
Current Conditions -  °F | °C
As of 4:09 PM on Tuesday 25 Nov 2014 (Local Time) from KMWH Reporting Station
Haze Haze  
Wind Chill: 31°   Ceiling: 3100
Heat Index: 38°   Visibility: 4mi
Dew Point: 36°   Wind: 9mph
Humidity: 93%   Direction: 360°N
Pressure: 30.25"   Gusts: NA
Location:  47.32°N, 119.01°W
Report Text: KMWH 260009Z 36008KT 4SM BR FEW003 FEW025 OVC031 03/02 A3025 RMK AO2 T00330022 $
Loading
Personal Weather Stations






























Interactive Weather Map New forecast layout! Learn more

10-Day Weather Forecast

Advertisements
Track Severe Weather on mobile